Time;durP1;ratioP1;P1;durP2;ratioP2;P2;SDS_P1;SDS_P2;PMS_P1;PMS_P2;Temp;Humidity;BMP_temperature;BMP_pressure;BME280_temperature;BME280_humidity;BME280_pressure;Samples;Min_cycle;Max_cycle;Signal;HPM_P1;HPM_P2
2023/08/30 00:00:34;;;;;;;6.38;3.65;;;;;;;;;;4877141;29;20216;-81
2023/08/30 00:03:02;;;;;;;4.40;3.55;;;;;;;;;;4881300;29;20368;-83
2023/08/30 00:05:29;;;;;;;3.17;2.97;;;;;;;;;;4896648;29;20277;-82
2023/08/30 00:07:56;;;;;;;3.95;3.65;;;;;;;;;;4896704;29;20293;-82
2023/08/30 00:10:24;;;;;;;3.38;2.85;;;;;;;;;;4896295;29;20722;-82
2023/08/30 00:12:51;;;;;;;3.40;3.13;;;;;;;;;;4896142;29;20216;-82
2023/08/30 00:15:19;;;;;;;2.88;2.55;;;;;;;;;;4896094;29;20233;-82
2023/08/30 00:17:48;;;;;;;3.38;3.08;;;;;;;;;;4896276;29;20232;-82
2023/08/30 00:20:17;;;;;;;2.72;2.58;;;;;;;;;;4895990;29;20212;-82
2023/08/30 00:22:43;;;;;;;2.83;2.63;;;;;;;;;;4895919;29;20605;-82
2023/08/30 00:25:12;;;;;;;5.60;2.30;;;;;;;;;;4896447;29;20209;-84
2023/08/30 00:27:39;;;;;;;3.30;2.88;;;;;;;;;;4896197;29;20264;-81
2023/08/30 00:30:08;;;;;;;6.40;2.50;;;;;;;;;;4895896;29;20227;-83
2023/08/30 00:32:35;;;;;;;2.78;2.58;;;;;;;;;;4895877;29;20201;-83
2023/08/30 00:35:02;;;;;;;3.83;3.53;;;;;;;;;;4896000;29;20201;-82
2023/08/30 00:37:31;;;;;;;3.05;2.78;;;;;;;;;;4895816;29;20326;-82
2023/08/30 00:39:59;;;;;;;3.22;2.75;;;;;;;;;;4895600;29;20268;-83
2023/08/30 00:42:27;;;;;;;3.80;2.50;;;;;;;;;;4895641;29;20239;-82
2023/08/30 00:44:55;;;;;;;2.72;2.63;;;;;;;;;;4895008;29;20675;-83
2023/08/30 00:47:23;;;;;;;2.97;2.80;;;;;;;;;;4896560;29;20241;-83
2023/08/30 00:49:51;;;;;;;5.72;2.85;;;;;;;;;;4896308;29;20208;-83
2023/08/30 00:52:21;;;;;;;5.45;3.70;;;;;;;;;;4896055;29;20211;-83
2023/08/30 00:54:50;;;;;;;2.78;2.58;;;;;;;;;;4896441;29;20266;-81
2023/08/30 00:57:22;;;;;;;2.83;2.63;;;;;;;;;;4897802;29;20283;-83
2023/08/30 00:59:49;;;;;;;3.25;2.75;;;;;;;;;;4895951;29;20229;-82
2023/08/30 01:02:17;;;;;;;2.90;2.70;;;;;;;;;;4895053;29;20203;-82
2023/08/30 01:04:44;;;;;;;6.38;2.97;;;;;;;;;;4895272;29;20628;-83
2023/08/30 01:07:13;;;;;;;4.03;3.13;;;;;;;;;;4895282;29;20209;-82
2023/08/30 01:09:41;;;;;;;2.70;2.55;;;;;;;;;;4895547;29;20230;-82
2023/08/30 01:12:12;;;;;;;3.33;2.35;;;;;;;;;;4895980;29;20216;-82
2023/08/30 01:14:42;;;;;;;3.67;2.78;;;;;;;;;;4895178;29;20291;-83
2023/08/30 01:17:10;;;;;;;2.83;2.55;;;;;;;;;;4895687;29;20267;-81
2023/08/30 01:19:44;;;;;;;6.93;2.40;;;;;;;;;;4882291;29;20743;-82
2023/08/30 01:22:15;;;;;;;3.38;2.85;;;;;;;;;;4876787;29;20275;-81
2023/08/30 01:24:45;;;;;;;2.40;2.30;;;;;;;;;;4875178;29;20220;-82
2023/08/30 01:27:16;;;;;;;4.25;2.67;;;;;;;;;;4876080;29;20210;-82
2023/08/30 01:29:45;;;;;;;6.03;2.80;;;;;;;;;;4876458;29;20217;-81
2023/08/30 01:32:13;;;;;;;2.85;2.33;;;;;;;;;;4875982;29;20233;-82
2023/08/30 01:34:46;;;;;;;2.40;2.20;;;;;;;;;;4875140;29;20256;-82
2023/08/30 01:37:14;;;;;;;2.65;2.20;;;;;;;;;;4877057;29;20280;-81
2023/08/30 01:39:44;;;;;;;2.92;2.25;;;;;;;;;;4876935;29;20246;-82
2023/08/30 01:42:11;;;;;;;5.18;2.92;;;;;;;;;;4876208;29;20257;-81
2023/08/30 01:44:44;;;;;;;2.30;1.98;;;;;;;;;;4876510;29;20257;-80
2023/08/30 01:47:12;;;;;;;3.97;2.40;;;;;;;;;;4875779;29;20200;-82
2023/08/30 01:49:42;;;;;;;3.28;2.40;;;;;;;;;;4877015;29;20209;-82
2023/08/30 01:52:11;;;;;;;2.80;2.60;;;;;;;;;;4876448;29;20284;-82
2023/08/30 01:54:40;;;;;;;4.97;1.80;;;;;;;;;;4873962;29;20714;-82
2023/08/30 01:57:08;;;;;;;2.60;2.40;;;;;;;;;;4876397;29;20237;-81
2023/08/30 01:59:37;;;;;;;2.80;2.70;;;;;;;;;;4877207;29;20206;-82
2023/08/30 02:02:08;;;;;;;2.20;2.03;;;;;;;;;;4876246;29;20265;-82
2023/08/30 02:04:35;;;;;;;2.72;2.53;;;;;;;;;;4876247;29;20221;-83
2023/08/30 02:07:03;;;;;;;2.58;2.38;;;;;;;;;;4876400;29;20212;-82
2023/08/30 02:09:35;;;;;;;4.20;2.60;;;;;;;;;;4880567;29;20366;-82
2023/08/30 02:12:05;;;;;;;3.60;1.95;;;;;;;;;;4901153;29;20216;-83
2023/08/30 02:14:34;;;;;;;2.50;2.13;;;;;;;;;;4905705;29;20208;-83
2023/08/30 02:17:03;;;;;;;4.22;2.17;;;;;;;;;;4894707;29;20210;-82
2023/08/30 02:19:31;;;;;;;1.85;1.75;;;;;;;;;;4894692;29;20197;-81
2023/08/30 02:21:58;;;;;;;2.60;1.92;;;;;;;;;;4894536;29;20227;-82
2023/08/30 02:24:25;;;;;;;2.00;1.90;;;;;;;;;;4895096;29;20256;-82
2023/08/30 02:26:54;;;;;;;5.07;2.20;;;;;;;;;;4894580;29;20237;-83
2023/08/30 02:29:22;;;;;;;2.00;1.80;;;;;;;;;;4894922;29;20216;-82
2023/08/30 02:31:49;;;;;;;2.40;2.20;;;;;;;;;;4894262;29;20256;-81
2023/08/30 02:34:15;;;;;;;1.70;1.58;;;;;;;;;;4894237;29;20280;-82
2023/08/30 02:36:44;;;;;;;3.15;2.22;;;;;;;;;;4894639;29;20423;-82
2023/08/30 02:39:12;;;;;;;2.70;2.50;;;;;;;;;;4894460;29;20268;-81
2023/08/30 02:41:40;;;;;;;7.75;2.35;;;;;;;;;;4895076;29;20314;-83
2023/08/30 02:44:10;;;;;;;2.33;2.03;;;;;;;;;;4894931;29;20638;-81
2023/08/30 02:46:38;;;;;;;2.45;2.25;;;;;;;;;;4896761;29;20204;-82
2023/08/30 02:49:06;;;;;;;2.85;2.42;;;;;;;;;;4898090;29;20232;-82
2023/08/30 02:51:33;;;;;;;2.40;2.30;;;;;;;;;;4898828;29;20230;-82
2023/08/30 02:54:01;;;;;;;3.75;2.95;;;;;;;;;;4898014;29;20209;-82
2023/08/30 02:56:28;;;;;;;8.52;2.25;;;;;;;;;;4898043;29;20215;-81
2023/08/30 02:58:56;;;;;;;3.53;2.13;;;;;;;;;;4898262;29;20615;-82
2023/08/30 03:01:24;;;;;;;6.95;1.80;;;;;;;;;;4896517;29;20208;-82
2023/08/30 03:03:51;;;;;;;2.55;2.35;;;;;;;;;;4898123;29;20218;-82
2023/08/30 03:06:18;;;;;;;2.45;2.30;;;;;;;;;;4897744;29;20206;-82
2023/08/30 03:08:46;;;;;;;1.98;1.85;;;;;;;;;;4897655;29;20235;-85
2023/08/30 03:11:14;;;;;;;2.42;2.03;;;;;;;;;;4897286;29;20222;-82
2023/08/30 03:13:41;;;;;;;2.25;2.15;;;;;;;;;;4897262;29;20207;-82
2023/08/30 03:16:13;;;;;;;2.42;2.25;;;;;;;;;;4896773;29;20217;-81
2023/08/30 03:18:40;;;;;;;2.08;1.80;;;;;;;;;;4896988;29;20295;-82
2023/08/30 03:21:07;;;;;;;1.70;1.60;;;;;;;;;;4889725;29;20298;-82
2023/08/30 03:23:35;;;;;;;1.85;1.75;;;;;;;;;;4878154;29;20223;-81
2023/08/30 03:26:09;;;;;;;2.15;2.05;;;;;;;;;;4877647;29;20207;-82
2023/08/30 03:28:39;;;;;;;6.22;2.10;;;;;;;;;;4878932;29;20339;-83
2023/08/30 03:31:12;;;;;;;4.00;2.28;;;;;;;;;;4887578;29;20326;-82
2023/08/30 03:33:41;;;;;;;4.82;2.22;;;;;;;;;;4897183;29;20660;-82
2023/08/30 03:36:09;;;;;;;3.08;1.90;;;;;;;;;;4897015;29;20313;-82
2023/08/30 03:38:36;;;;;;;2.85;2.47;;;;;;;;;;4898848;29;20258;-83
2023/08/30 03:41:04;;;;;;;1.90;1.80;;;;;;;;;;4899003;29;20263;-82
2023/08/30 03:43:31;;;;;;;3.53;1.88;;;;;;;;;;4897406;29;20298;-83
2023/08/30 03:46:01;;;;;;;3.13;2.10;;;;;;;;;;4896645;29;20203;-83
2023/08/30 03:48:27;;;;;;;6.60;2.28;;;;;;;;;;4896985;29;20435;-82
2023/08/30 03:50:56;;;;;;;2.05;1.95;;;;;;;;;;4897525;29;20218;-82
2023/08/30 03:53:24;;;;;;;2.97;2.38;;;;;;;;;;4897816;29;20674;-83
2023/08/30 03:55:52;;;;;;;2.38;2.15;;;;;;;;;;4896784;29;20218;-82
2023/08/30 03:58:19;;;;;;;2.50;2.30;;;;;;;;;;4896051;29;20326;-82
2023/08/30 04:00:48;;;;;;;2.47;2.30;;;;;;;;;;4896655;29;20208;-82
2023/08/30 04:03:17;;;;;;;2.97;1.85;;;;;;;;;;4897194;29;20203;-82
2023/08/30 04:05:45;;;;;;;2.35;2.13;;;;;;;;;;4896701;29;20681;-81
2023/08/30 04:08:11;;;;;;;2.63;2.08;;;;;;;;;;4896833;29;20655;-82
2023/08/30 04:10:38;;;;;;;2.17;1.92;;;;;;;;;;4896561;29;20231;-83
2023/08/30 04:13:07;;;;;;;2.83;2.65;;;;;;;;;;4897003;29;20291;-82
2023/08/30 04:15:36;;;;;;;2.35;2.15;;;;;;;;;;4896900;29;20204;-82
2023/08/30 04:18:04;;;;;;;10.70;4.80;;;;;;;;;;4897157;29;20320;-83
2023/08/30 04:20:32;;;;;;;4.03;3.15;;;;;;;;;;4896781;29;20197;-82
2023/08/30 04:23:01;;;;;;;3.53;3.00;;;;;;;;;;4896868;29;20247;-82
2023/08/30 04:25:29;;;;;;;6.10;4.60;;;;;;;;;;4898623;29;20212;-82
2023/08/30 04:27:56;;;;;;;5.13;2.90;;;;;;;;;;4897844;29;20201;-82
2023/08/30 04:30:23;;;;;;;8.63;6.30;;;;;;;;;;4896333;29;20248;-82
2023/08/30 04:32:51;;;;;;;6.20;4.07;;;;;;;;;;4896356;29;20197;-82
2023/08/30 04:35:18;;;;;;;13.13;5.93;;;;;;;;;;4895862;29;20209;-82
2023/08/30 04:37:48;;;;;;;3.92;2.42;;;;;;;;;;4895851;29;20213;-82
2023/08/30 04:40:15;;;;;;;2.17;2.08;;;;;;;;;;4894995;29;20253;-82
2023/08/30 04:42:43;;;;;;;2.58;2.13;;;;;;;;;;4895677;29;20588;-83
2023/08/30 04:45:10;;;;;;;2.38;2.10;;;;;;;;;;4895259;29;20212;-82
2023/08/30 04:47:37;;;;;;;2.97;1.60;;;;;;;;;;4895326;29;20209;-83
2023/08/30 04:50:05;;;;;;;2.17;1.77;;;;;;;;;;4896058;29;20283;-81
2023/08/30 04:52:33;;;;;;;1.55;1.45;;;;;;;;;;4895109;29;20212;-82
2023/08/30 04:55:04;;;;;;;1.13;1.13;;;;;;;;;;4895852;29;20209;-82
2023/08/30 04:57:32;;;;;;;1.70;1.60;;;;;;;;;;4895430;29;20270;-81
2023/08/30 04:59:59;;;;;;;2.17;1.85;;;;;;;;;;4892192;29;20461;-81
2023/08/30 05:02:27;;;;;;;3.92;1.83;;;;;;;;;;4881568;29;20824;-82
2023/08/30 05:04:54;;;;;;;2.92;1.60;;;;;;;;;;4875643;29;20205;-82
2023/08/30 05:07:22;;;;;;;3.75;1.60;;;;;;;;;;4876840;29;20272;-83
2023/08/30 05:09:49;;;;;;;1.65;1.55;;;;;;;;;;4875328;29;20237;-81
2023/08/30 05:12:18;;;;;;;1.33;1.27;;;;;;;;;;4876796;29;20209;-83
2023/08/30 05:14:46;;;;;;;5.13;1.58;;;;;;;;;;4876133;29;20672;-82
2023/08/30 05:17:13;;;;;;;1.83;1.70;;;;;;;;;;4876522;29;20293;-82
2023/08/30 05:19:42;;;;;;;2.00;1.90;;;;;;;;;;4875885;29;20313;-82
2023/08/30 05:22:10;;;;;;;3.05;1.70;;;;;;;;;;4876736;29;20197;-82
2023/08/30 05:24:40;;;;;;;2.20;1.40;;;;;;;;;;4876388;29;20241;-82
2023/08/30 05:27:08;;;;;;;2.33;1.35;;;;;;;;;;4875679;29;20217;-83
2023/08/30 05:29:36;;;;;;;4.95;1.80;;;;;;;;;;4875958;29;20205;-84
2023/08/30 05:32:04;;;;;;;1.75;1.65;;;;;;;;;;4875978;29;20289;-84
2023/08/30 05:34:32;;;;;;;2.85;1.77;;;;;;;;;;4875214;29;20207;-83
2023/08/30 05:37:00;;;;;;;2.17;1.98;;;;;;;;;;4875870;29;20750;-83
2023/08/30 05:39:27;;;;;;;4.75;1.70;;;;;;;;;;4876100;29;20248;-81
2023/08/30 05:41:55;;;;;;;4.40;1.92;;;;;;;;;;4873773;29;20232;-81
2023/08/30 05:44:23;;;;;;;3.28;1.55;;;;;;;;;;4888042;29;20236;-82
2023/08/30 05:46:51;;;;;;;3.85;1.70;;;;;;;;;;4893083;29;20225;-81
2023/08/30 05:49:21;;;;;;;4.03;2.05;;;;;;;;;;4893180;29;20233;-82
2023/08/30 05:51:48;;;;;;;1.70;1.67;;;;;;;;;;4890477;29;20247;-81
2023/08/30 05:54:17;;;;;;;1.55;1.45;;;;;;;;;;4883273;29;20303;-81
2023/08/30 05:56:45;;;;;;;4.05;1.50;;;;;;;;;;4892863;29;20227;-82
2023/08/30 05:59:14;;;;;;;1.90;1.50;;;;;;;;;;4893770;29;20716;-82
2023/08/30 06:01:42;;;;;;;2.45;1.70;;;;;;;;;;4893205;29;20394;-83
2023/08/30 06:04:11;;;;;;;1.60;1.50;;;;;;;;;;4893300;29;20303;-83
2023/08/30 06:06:38;;;;;;;1.50;1.50;;;;;;;;;;4893167;29;20228;-82
2023/08/30 06:09:09;;;;;;;2.13;1.85;;;;;;;;;;4893454;29;20220;-83
2023/08/30 06:11:38;;;;;;;1.73;1.63;;;;;;;;;;4880426;29;20693;-81
2023/08/30 06:14:06;;;;;;;1.75;1.67;;;;;;;;;;4874513;29;20240;-82
2023/08/30 06:16:34;;;;;;;1.50;1.50;;;;;;;;;;4874227;29;20240;-83
2023/08/30 06:19:02;;;;;;;1.58;1.48;;;;;;;;;;4873587;29;20237;-83
2023/08/30 06:21:32;;;;;;;3.70;1.80;;;;;;;;;;4876488;29;20240;-82
2023/08/30 06:24:03;;;;;;;1.65;1.55;;;;;;;;;;4878156;29;20232;-83
2023/08/30 06:26:32;;;;;;;2.47;1.40;;;;;;;;;;4877218;29;20737;-84
2023/08/30 06:29:01;;;;;;;1.58;1.48;;;;;;;;;;4878049;29;20236;-82
2023/08/30 06:31:28;;;;;;;2.50;1.92;;;;;;;;;;4878039;29;20240;-84
2023/08/30 06:33:57;;;;;;;2.10;1.52;;;;;;;;;;4866034;29;20225;-83
2023/08/30 06:36:26;;;;;;;3.13;1.83;;;;;;;;;;4878017;29;20243;-82
2023/08/30 06:38:55;;;;;;;2.33;1.60;;;;;;;;;;4877572;29;20592;-85
2023/08/30 06:41:23;;;;;;;2.70;2.00;;;;;;;;;;4877239;29;20229;-82
2023/08/30 06:43:52;;;;;;;1.65;1.55;;;;;;;;;;4877669;29;20232;-83
2023/08/30 06:46:20;;;;;;;1.85;1.50;;;;;;;;;;4878526;29;20244;-82
2023/08/30 06:48:48;;;;;;;3.78;1.83;;;;;;;;;;4877581;29;20734;-82
2023/08/30 06:51:15;;;;;;;1.80;1.70;;;;;;;;;;4878302;29;20229;-83
2023/08/30 06:53:43;;;;;;;1.63;1.52;;;;;;;;;;4876969;29;20237;-82
2023/08/30 06:56:13;;;;;;;1.77;1.70;;;;;;;;;;4877345;29;20241;-83
2023/08/30 06:58:40;;;;;;;1.50;1.40;;;;;;;;;;4877602;29;20249;-82
2023/08/30 07:01:12;;;;;;;1.60;1.50;;;;;;;;;;4877937;29;20656;-83
2023/08/30 07:03:40;;;;;;;2.10;2.00;;;;;;;;;;4877704;29;20236;-81
2023/08/30 07:06:08;;;;;;;2.00;1.80;;;;;;;;;;4877291;29;20269;-82
2023/08/30 07:08:37;;;;;;;2.33;1.92;;;;;;;;;;4877514;29;20327;-82
2023/08/30 07:11:08;;;;;;;1.73;1.63;;;;;;;;;;4877682;29;20224;-82
2023/08/30 07:13:36;;;;;;;1.70;1.60;;;;;;;;;;4877736;29;20667;-82
2023/08/30 07:16:04;;;;;;;1.83;1.73;;;;;;;;;;4877267;29;20682;-81
2023/08/30 07:18:32;;;;;;;2.25;2.05;;;;;;;;;;4877182;29;20221;-83
2023/08/30 07:21:00;;;;;;;2.17;2.08;;;;;;;;;;4877142;29;20236;-82
2023/08/30 07:23:29;;;;;;;2.55;1.63;;;;;;;;;;4877116;29;20228;-82
2023/08/30 07:25:57;;;;;;;1.88;1.77;;;;;;;;;;4876879;29;20320;-82
2023/08/30 07:28:25;;;;;;;1.88;1.77;;;;;;;;;;4862190;29;20237;-83
2023/08/30 07:31:02;;;;;;;2.92;1.73;;;;;;;;;;4858458;29;20297;-83
2023/08/30 07:33:30;;;;;;;3.58;1.70;;;;;;;;;;4857657;29;20229;-82
2023/08/30 07:35:57;;;;;;;1.70;1.67;;;;;;;;;;4858387;29;20301;-82
2023/08/30 07:38:26;;;;;;;2.13;1.80;;;;;;;;;;4858695;29;20305;-82
2023/08/30 07:40:55;;;;;;;2.70;1.88;;;;;;;;;;4857911;29;20758;-82
2023/08/30 07:43:23;;;;;;;1.67;1.58;;;;;;;;;;4858994;29;20703;-82
2023/08/30 07:45:52;;;;;;;2.75;1.60;;;;;;;;;;4858343;29;20230;-83
2023/08/30 07:48:21;;;;;;;2.10;2.00;;;;;;;;;;4858431;29;20671;-82
2023/08/30 07:50:50;;;;;;;2.33;1.98;;;;;;;;;;4856595;29;20605;-83
2023/08/30 07:53:17;;;;;;;1.55;1.45;;;;;;;;;;4858354;29;20329;-82
2023/08/30 07:55:48;;;;;;;1.40;1.30;;;;;;;;;;4864409;29;20300;-81
2023/08/30 07:58:17;;;;;;;4.65;2.00;;;;;;;;;;4877232;29;20233;-82
2023/08/30 08:00:45;;;;;;;4.80;1.92;;;;;;;;;;4876679;29;20270;-84
2023/08/30 08:03:13;;;;;;;1.50;1.40;;;;;;;;;;4877119;29;20718;-83
2023/08/30 08:05:42;;;;;;;1.98;1.73;;;;;;;;;;4877001;29;20225;-83
2023/08/30 08:08:10;;;;;;;2.05;1.77;;;;;;;;;;4876409;29;20248;-82
2023/08/30 08:10:39;;;;;;;3.83;1.73;;;;;;;;;;4873305;29;20256;-83
2023/08/30 08:13:07;;;;;;;1.60;1.50;;;;;;;;;;4877412;29;20698;-82
2023/08/30 08:15:35;;;;;;;2.28;1.35;;;;;;;;;;4876839;29;20663;-83
2023/08/30 08:18:02;;;;;;;2.75;1.45;;;;;;;;;;4875983;29;20224;-82
2023/08/30 08:20:31;;;;;;;1.67;1.65;;;;;;;;;;4875350;29;20241;-82
2023/08/30 08:22:59;;;;;;;2.10;1.63;;;;;;;;;;4876163;29;20217;-83
2023/08/30 08:25:27;;;;;;;3.80;1.70;;;;;;;;;;4875719;29;20209;-83
2023/08/30 08:27:57;;;;;;;2.10;1.60;;;;;;;;;;4875235;29;20766;-82
2023/08/30 08:30:24;;;;;;;1.60;1.48;;;;;;;;;;4875381;29;20320;-84
2023/08/30 08:32:52;;;;;;;3.60;1.85;;;;;;;;;;4875956;29;20241;-83
2023/08/30 08:35:19;;;;;;;1.73;1.63;;;;;;;;;;4877500;29;20210;-83
2023/08/30 08:37:47;;;;;;;1.85;1.60;;;;;;;;;;4876628;29;20675;-83
2023/08/30 08:40:17;;;;;;;1.60;1.38;;;;;;;;;;4877150;29;20233;-83
2023/08/30 08:42:44;;;;;;;2.95;1.42;;;;;;;;;;4877194;29;20289;-82
2023/08/30 08:45:16;;;;;;;1.88;1.67;;;;;;;;;;4877346;29;20697;-82
2023/08/30 08:47:44;;;;;;;2.75;1.30;;;;;;;;;;4877125;29;20214;-82
2023/08/30 08:50:12;;;;;;;2.03;1.55;;;;;;;;;;4877230;29;20213;-83
2023/08/30 08:52:39;;;;;;;1.58;1.50;;;;;;;;;;4877023;29;20210;-83
2023/08/30 08:55:08;;;;;;;2.38;1.60;;;;;;;;;;4877201;29;20228;-83
2023/08/30 08:57:39;;;;;;;1.88;1.77;;;;;;;;;;4876879;29;20257;-82
2023/08/30 09:00:08;;;;;;;1.05;1.05;;;;;;;;;;4877459;29;20244;-83
2023/08/30 09:02:35;;;;;;;3.70;1.67;;;;;;;;;;4877009;29;20209;-83
2023/08/30 09:05:04;;;;;;;4.15;2.58;;;;;;;;;;4876182;29;20213;-84
2023/08/30 09:07:32;;;;;;;2.75;2.50;;;;;;;;;;4876822;29;20220;-84
2023/08/30 09:09:59;;;;;;;3.50;2.75;;;;;;;;;;4876958;29;20221;-84
2023/08/30 09:12:27;;;;;;;4.32;2.67;;;;;;;;;;4876802;29;20201;-81
2023/08/30 09:14:57;;;;;;;2.45;2.35;;;;;;;;;;4877165;29;20599;-82
2023/08/30 09:17:26;;;;;;;2.65;2.50;;;;;;;;;;4877044;29;20220;-82
2023/08/30 09:19:53;;;;;;;3.90;2.60;;;;;;;;;;4876841;29;20328;-82
2023/08/30 09:22:23;;;;;;;2.53;2.40;;;;;;;;;;4876764;29;20680;-82
2023/08/30 09:24:52;;;;;;;3.45;3.05;;;;;;;;;;4877486;29;20202;-83
2023/08/30 09:27:21;;;;;;;8.57;2.70;;;;;;;;;;4876790;29;20205;-82
2023/08/30 09:29:49;;;;;;;2.40;2.30;;;;;;;;;;4876128;29;20252;-83
2023/08/30 09:32:24;;;;;;;2.10;2.00;;;;;;;;;;4875922;29;20237;-82
2023/08/30 09:34:52;;;;;;;2.67;2.40;;;;;;;;;;4876591;29;20216;-81
2023/08/30 09:37:26;;;;;;;2.55;2.45;;;;;;;;;;4876567;29;20590;-84
2023/08/30 09:39:53;;;;;;;2.70;2.50;;;;;;;;;;4876557;29;20542;-82
2023/08/30 09:42:22;;;;;;;2.83;2.63;;;;;;;;;;4876102;29;20265;-83
2023/08/30 09:44:51;;;;;;;3.00;2.80;;;;;;;;;;4876089;29;20210;-82
2023/08/30 09:47:19;;;;;;;3.15;2.30;;;;;;;;;;4876302;29;20236;-82
2023/08/30 09:49:48;;;;;;;2.30;2.10;;;;;;;;;;4876135;29;20205;-82
2023/08/30 09:52:16;;;;;;;2.85;2.65;;;;;;;;;;4876511;29;20285;-83
2023/08/30 09:54:43;;;;;;;2.42;2.33;;;;;;;;;;4875696;29;20606;-83
2023/08/30 09:57:11;;;;;;;4.20;2.10;;;;;;;;;;4876178;29;20229;-84
2023/08/30 09:59:39;;;;;;;5.45;2.67;;;;;;;;;;4875773;29;20237;-82
2023/08/30 10:02:11;;;;;;;3.50;2.83;;;;;;;;;;4876525;29;20209;-81
2023/08/30 10:04:40;;;;;;;3.83;2.55;;;;;;;;;;4876270;29;20209;-84
2023/08/30 10:07:11;;;;;;;2.78;2.67;;;;;;;;;;4875947;29;20209;-82
2023/08/30 10:09:39;;;;;;;4.00;2.60;;;;;;;;;;4876398;29;20221;-83
2023/08/30 10:12:08;;;;;;;2.45;2.35;;;;;;;;;;4876468;29;20206;-83
2023/08/30 10:14:36;;;;;;;2.80;2.38;;;;;;;;;;4876070;29;20540;-81
2023/08/30 10:17:04;;;;;;;2.58;2.47;;;;;;;;;;4876020;29;20209;-82
2023/08/30 10:19:32;;;;;;;3.00;2.80;;;;;;;;;;4876047;29;20277;-82
2023/08/30 10:22:02;;;;;;;2.22;2.13;;;;;;;;;;4875851;29;20683;-82
2023/08/30 10:24:33;;;;;;;2.65;2.45;;;;;;;;;;4875548;29;20569;-82
2023/08/30 10:27:01;;;;;;;3.80;2.83;;;;;;;;;;4879225;29;20221;-82
2023/08/30 10:29:31;;;;;;;3.80;2.80;;;;;;;;;;4878897;29;20284;-82
2023/08/30 10:32:03;;;;;;;9.80;3.20;;;;;;;;;;4860142;29;20272;-82
2023/08/30 10:34:33;;;;;;;3.63;2.20;;;;;;;;;;4876028;29;20198;-82
2023/08/30 10:37:01;;;;;;;2.95;2.42;;;;;;;;;;4875658;29;20206;-82
2023/08/30 10:39:36;;;;;;;2.85;2.65;;;;;;;;;;4875412;29;20236;-82
2023/08/30 10:42:09;;;;;;;2.40;2.20;;;;;;;;;;4875873;29;20208;-83
2023/08/30 10:44:37;;;;;;;6.07;2.97;;;;;;;;;;4875696;29;20221;-81
2023/08/30 10:47:06;;;;;;;8.57;2.78;;;;;;;;;;4876218;29;20288;-83
2023/08/30 10:49:40;;;;;;;4.13;2.67;;;;;;;;;;4875921;29;20687;-82
2023/08/30 10:52:13;;;;;;;2.83;2.60;;;;;;;;;;4872440;29;20225;-84
2023/08/30 10:54:43;;;;;;;2.72;2.53;;;;;;;;;;4873801;29;20229;-84
2023/08/30 10:57:14;;;;;;;4.38;2.80;;;;;;;;;;4873735;29;20301;-84
2023/08/30 10:59:42;;;;;;;2.67;2.45;;;;;;;;;;4874301;29;20225;-83
2023/08/30 11:02:10;;;;;;;3.10;2.80;;;;;;;;;;4873852;29;20253;-83
2023/08/30 11:04:42;;;;;;;5.97;2.40;;;;;;;;;;4874398;29;20848;-83
2023/08/30 11:07:17;;;;;;;4.93;3.10;;;;;;;;;;4881693;29;20249;-83
2023/08/30 11:09:46;;;;;;;2.92;2.75;;;;;;;;;;4884143;29;20271;-83
2023/08/30 11:12:18;;;;;;;2.83;2.63;;;;;;;;;;4878272;29;20237;-84
2023/08/30 11:14:45;;;;;;;2.97;2.78;;;;;;;;;;4877672;29;20726;-83
2023/08/30 11:17:13;;;;;;;3.85;2.47;;;;;;;;;;4877502;29;20327;-83
2023/08/30 11:19:41;;;;;;;3.05;2.83;;;;;;;;;;4876498;29;20738;-83
2023/08/30 11:22:08;;;;;;;4.80;3.03;;;;;;;;;;4877527;29;20626;-82
2023/08/30 11:24:37;;;;;;;3.70;2.92;;;;;;;;;;4877747;29;20239;-83
2023/08/30 11:27:06;;;;;;;2.88;2.78;;;;;;;;;;4877205;29;20343;-82
2023/08/30 11:29:35;;;;;;;2.15;2.05;;;;;;;;;;4877166;29;20683;-83
2023/08/30 11:32:03;;;;;;;1.90;1.80;;;;;;;;;;4876679;29;20348;-82
2023/08/30 11:34:31;;;;;;;2.90;2.70;;;;;;;;;;4876686;29;20231;-83
2023/08/30 11:37:01;;;;;;;2.78;2.55;;;;;;;;;;4876435;29;20263;-83
2023/08/30 11:39:29;;;;;;;4.82;2.35;;;;;;;;;;4876968;29;20267;-83
2023/08/30 11:41:56;;;;;;;2.75;2.20;;;;;;;;;;4876107;29;20241;-83
2023/08/30 11:44:26;;;;;;;2.30;2.20;;;;;;;;;;4876728;29;20758;-82
2023/08/30 11:47:00;;;;;;;2.85;2.45;;;;;;;;;;4875971;29;20255;-84
2023/08/30 11:49:28;;;;;;;2.47;2.22;;;;;;;;;;4876740;29;20229;-83
2023/08/30 11:51:56;;;;;;;2.50;2.40;;;;;;;;;;4876193;29;20734;-84
2023/08/30 11:54:24;;;;;;;2.70;2.50;;;;;;;;;;4876617;29;20687;-85
2023/08/30 11:56:52;;;;;;;2.47;2.28;;;;;;;;;;4876515;29;20301;-82
2023/08/30 11:59:20;;;;;;;2.40;2.30;;;;;;;;;;4876545;29;20321;-85
2023/08/30 12:01:49;;;;;;;3.50;2.55;;;;;;;;;;4876180;29;20256;-83
2023/08/30 12:04:18;;;;;;;2.63;2.53;;;;;;;;;;4876012;29;20229;-82
2023/08/30 12:06:45;;;;;;;3.00;2.80;;;;;;;;;;4876326;29;20719;-82
2023/08/30 12:09:14;;;;;;;3.28;3.08;;;;;;;;;;4877006;29;20233;-82
2023/08/30 12:11:42;;;;;;;2.65;2.53;;;;;;;;;;4876524;29;20365;-82
2023/08/30 12:14:09;;;;;;;2.35;2.25;;;;;;;;;;4876531;29;20226;-83
2023/08/30 12:16:37;;;;;;;2.97;2.78;;;;;;;;;;4876174;29;20308;-82
2023/08/30 12:19:12;;;;;;;2.55;2.35;;;;;;;;;;4875075;29;20232;-83
2023/08/30 12:21:43;;;;;;;2.50;2.30;;;;;;;;;;4876016;29;20301;-82
2023/08/30 12:24:11;;;;;;;3.03;2.63;;;;;;;;;;4876405;29;20260;-82
2023/08/30 12:26:39;;;;;;;3.28;2.80;;;;;;;;;;4875669;29;20725;-82
2023/08/30 12:29:06;;;;;;;4.43;2.90;;;;;;;;;;4875549;29;20281;-82
2023/08/30 12:31:34;;;;;;;3.03;2.60;;;;;;;;;;4876416;29;20755;-83
2023/08/30 12:34:01;;;;;;;3.00;2.40;;;;;;;;;;4875298;29;20347;-82
2023/08/30 12:36:29;;;;;;;3.67;2.38;;;;;;;;;;4875881;29;20228;-82
2023/08/30 12:38:57;;;;;;;2.55;2.35;;;;;;;;;;4873860;29;20297;-82
2023/08/30 12:41:24;;;;;;;3.10;2.80;;;;;;;;;;4875880;29;20237;-83
2023/08/30 12:43:51;;;;;;;3.13;2.90;;;;;;;;;;4874152;29;20233;-83
2023/08/30 12:46:22;;;;;;;2.75;2.58;;;;;;;;;;4875951;29;20261;-84
2023/08/30 12:48:51;;;;;;;2.45;2.35;;;;;;;;;;4874964;29;20252;-84
2023/08/30 12:51:18;;;;;;;2.67;2.50;;;;;;;;;;4875917;29;20221;-83
2023/08/30 12:53:47;;;;;;;4.75;2.38;;;;;;;;;;4875858;29;20232;-83
2023/08/30 12:56:14;;;;;;;3.13;2.50;;;;;;;;;;4875723;29;20715;-86
2023/08/30 12:58:44;;;;;;;2.70;2.50;;;;;;;;;;4875583;29;20261;-85
2023/08/30 13:01:10;;;;;;;2.42;2.33;;;;;;;;;;4876355;29;20340;-85
2023/08/30 13:03:38;;;;;;;2.25;2.15;;;;;;;;;;4875724;29;20233;-84
2023/08/30 13:06:07;;;;;;;3.20;2.20;;;;;;;;;;4875340;29;20257;-84
2023/08/30 13:08:35;;;;;;;1.60;1.50;;;;;;;;;;4875043;29;20746;-83
2023/08/30 13:11:04;;;;;;;2.00;1.90;;;;;;;;;;4875270;29;20296;-85
2023/08/30 13:13:32;;;;;;;2.75;2.15;;;;;;;;;;4875819;29;20298;-85
2023/08/30 13:16:00;;;;;;;2.33;1.85;;;;;;;;;;4875040;29;20241;-84
2023/08/30 13:18:27;;;;;;;2.83;2.13;;;;;;;;;;4874802;29;20703;-84
2023/08/30 13:20:55;;;;;;;2.95;2.00;;;;;;;;;;4874993;29;20249;-84
2023/08/30 13:23:23;;;;;;;2.17;1.98;;;;;;;;;;4875825;29;20237;-84
2023/08/30 13:25:50;;;;;;;1.90;1.80;;;;;;;;;;4874160;29;20308;-84
2023/08/30 13:28:20;;;;;;;1.88;1.77;;;;;;;;;;4875275;29;20233;-84
2023/08/30 13:30:49;;;;;;;2.55;1.98;;;;;;;;;;4872371;29;20233;-84
2023/08/30 13:33:18;;;;;;;5.13;1.88;;;;;;;;;;4874537;29;20234;-85
2023/08/30 13:35:49;;;;;;;1.95;1.85;;;;;;;;;;4874692;29;20233;-85
2023/08/30 13:38:17;;;;;;;2.20;2.10;;;;;;;;;;4875696;29;20245;-84
2023/08/30 13:40:45;;;;;;;2.22;2.08;;;;;;;;;;4873706;29;20251;-82
2023/08/30 13:43:15;;;;;;;4.18;1.80;;;;;;;;;;4875585;29;20235;-82
2023/08/30 13:45:46;;;;;;;2.53;2.30;;;;;;;;;;4871633;29;20305;-84
2023/08/30 13:48:15;;;;;;;2.88;2.13;;;;;;;;;;4874142;29;20229;-83
2023/08/30 13:50:43;;;;;;;2.78;2.08;;;;;;;;;;4874246;29;20249;-84
2023/08/30 13:53:12;;;;;;;2.20;2.00;;;;;;;;;;4875341;29;20779;-83
2023/08/30 13:55:39;;;;;;;1.98;1.88;;;;;;;;;;4874828;29;20233;-84
2023/08/30 13:58:06;;;;;;;1.95;1.75;;;;;;;;;;4875088;29;20635;-84
2023/08/30 14:00:34;;;;;;;2.60;1.83;;;;;;;;;;4874817;29;20811;-84
2023/08/30 14:03:03;;;;;;;2.88;1.85;;;;;;;;;;4874236;29;20405;-84
2023/08/30 14:05:31;;;;;;;1.73;1.63;;;;;;;;;;4875147;29;20229;-82
2023/08/30 14:07:59;;;;;;;1.77;1.67;;;;;;;;;;4877820;29;20710;-83
2023/08/30 14:10:26;;;;;;;4.57;1.65;;;;;;;;;;4893681;29;20817;-82
2023/08/30 14:12:53;;;;;;;3.13;1.90;;;;;;;;;;4892895;29;20706;-82
2023/08/30 14:15:20;;;;;;;1.77;1.67;;;;;;;;;;4894047;29;20228;-81
2023/08/30 14:17:47;;;;;;;2.22;1.70;;;;;;;;;;4892110;29;20307;-82
2023/08/30 14:20:16;;;;;;;1.85;1.40;;;;;;;;;;4893638;29;20574;-81
2023/08/30 14:22:42;;;;;;;6.97;1.63;;;;;;;;;;4892911;29;20259;-82
2023/08/30 14:25:12;;;;;;;3.63;1.70;;;;;;;;;;4893500;29;20762;-82
2023/08/30 14:27:39;;;;;;;3.45;1.75;;;;;;;;;;4892843;29;20289;-82
2023/08/30 14:30:07;;;;;;;5.72;2.08;;;;;;;;;;4893575;29;20229;-83
2023/08/30 14:32:33;;;;;;;1.83;1.70;;;;;;;;;;4892304;29;20605;-82
2023/08/30 14:35:01;;;;;;;6.97;2.03;;;;;;;;;;4893070;29;20655;-83
2023/08/30 14:37:30;;;;;;;4.10;1.83;;;;;;;;;;4891770;29;20624;-82
2023/08/30 14:39:57;;;;;;;3.88;1.73;;;;;;;;;;4856406;29;20619;-82
2023/08/30 14:42:23;;;;;;;3.92;1.67;;;;;;;;;;4858402;29;20246;-82
2023/08/30 14:44:52;;;;;;;2.90;1.70;;;;;;;;;;4859424;29;20241;-82
2023/08/30 14:47:20;;;;;;;1.35;1.25;;;;;;;;;;4859698;29;20241;-82
2023/08/30 14:49:49;;;;;;;1.33;1.23;;;;;;;;;;4859353;29;20289;-81